Delta Cathryn — WDE9621 — position and weather

sailwx.info

Track history (hours):
 
Tides and Currents Weather Stations Pressure Air Temp Water Temp Dewpoint Dewpoint Depression Visibility Wind Speed Wind Dir Waves Ship Positions

Delta Cathryn

Owner: BAYDELTA MARITIME, SAN FRANCISCO, CA. More information available from US FCC via Universal Licensing System and Coast Guard Vessel Documentation Center.

Last reported at 2018-Apr-27 02:30 UTC. Time now 2018-Apr-27 02:42 UTC.
Position N 38°01' W 122°25'.

Length 30 m.

Type: Other ship. MMSI: 367419340.

Date/timePositionNaut miles runAvg speedWind from/ knotsBaromVisibWave heightAir tempDewpointWater temp
2018-Apr-27 02:30N 38°01' W 122°25'511.0
2018-Apr-27 02:00N 37°55' W 122°27'510.1
2018-Apr-27 01:30N 37°51' W 122°24'4 8.1
2018-Apr-27 01:00N 37°49' W 122°29'2 3.8
2018-Apr-27 00:30N 37°49' W 122°31'1 2.0
2018-Apr-27 00:00N 37°49' W 122°30'4 7.2
2018-Apr-26 23:30N 37°49' W 122°26'2 3.1
2018-Apr-26 23:00N 37°48' W 122°24'0 0.0
2018-Apr-26 22:30N 37°48' W 122°24'0 0.0
2018-Apr-26 22:00N 37°48' W 122°24'0 0.0
2018-Apr-26 21:30N 37°48' W 122°24'0 0.9
2018-Apr-26 21:00N 37°48' W 122°23'3 7.0
2018-Apr-26 20:30N 37°48' W 122°19'0 0.0
2018-Apr-26 20:00N 37°48' W 122°19'1 1.5
2018-Apr-26 19:30N 37°48' W 122°18'1 1.4
2018-Apr-26 19:00N 37°48' W 122°17'1 2.9
2018-Apr-26 18:30N 37°48' W 122°19'2 4.9
2018-Apr-26 18:00N 37°48' W 122°22'0 0.9
2018-Apr-26 17:30N 37°48' W 122°22'3 6.5
2018-Apr-26 17:00N 37°51' W 122°24'5 8.8
2018-Apr-26 16:29N 37°55' W 122°25'5 8.9
2018-Apr-26 15:59N 37°60' W 122°25'4 8.1
2018-Apr-26 15:29N 38°02' W 122°21'4 8.5
2018-Apr-26 14:59N 38°04' W 122°16'1 2.0
2018-Apr-26 14:30N 38°03' W 122°15'0 0.0
2018-Apr-26 13:53N 38°03' W 122°15'0 0.0
2018-Apr-26 13:27N 38°03' W 122°15'0 0.0
2018-Apr-26 12:59N 38°03' W 122°15'0 0.0
2018-Apr-26 12:30N 38°03' W 122°15'0 0.0
2018-Apr-26 11:56N 38°03' W 122°15'0 0.0
2018-Apr-26 11:30N 38°03' W 122°15'0 0.0
2018-Apr-26 10:56N 38°03' W 122°15'0 0.0
2018-Apr-26 10:30N 38°03' W 122°15'0 0.0
2018-Apr-26 09:46N 38°03' W 122°15'0 0.0
2018-Apr-26 09:30N 38°03' W 122°15'0 0.0
2018-Apr-26 07:08N 38°03' W 122°15'0 0.0
2018-Apr-26 07:00N 38°03' W 122°15'1 1.4
2018-Apr-26 06:30N 38°03' W 122°16'0 0.6
2018-Apr-26 05:59N 38°04' W 122°16'4 7.3
2018-Apr-26 05:30N 38°03' W 122°20'4 7.9
2018-Apr-26 04:59N 38°01' W 122°24'511.2
2018-Apr-26 04:30N 37°56' W 122°27'611.3
2018-Apr-26 04:00N 37°50' W 122°24'4 8.2
2018-Apr-26 03:30N 37°49' W 122°29'1 2.8
2018-Apr-26 03:00N 37°49' W 122°31'3 5.4
2018-Apr-26 02:30N 37°49' W 122°27'3 5.9
2018-Apr-26 02:00N 37°48' W 122°24'0 0.0
2018-Apr-26 01:30N 37°48' W 122°24'0 0.0
2018-Apr-26 01:00N 37°48' W 122°24'3 6.4
2018-Apr-26 00:30N 37°48' W 122°20'2 3.9
2018-Apr-26 00:00N 37°48' W 122°17'0 0.3
2018-Apr-25 23:30N 37°48' W 122°18'5 9.2
2018-Apr-25 23:00N 37°50' W 122°22'510.5
2018-Apr-25 22:30N 37°55' W 122°25'611.4
2018-Apr-25 22:00N 38°01' W 122°24'611.9
2018-Apr-25 21:30N 38°03' W 122°17'711.4
2018-Apr-25 20:56N 38°02' W 122°09'1 0.3
2018-Apr-25 17:05N 38°02' W 122°08'0 1.9
2018-Apr-25 16:59N 38°02' W 122°08'3 5.4
2018-Apr-25 16:30N 38°03' W 122°11'5 9.4
2018-Apr-25 16:00N 38°04' W 122°17'5 9.1
2018-Apr-25 15:30N 38°03' W 122°11'3 0.5
2018-Apr-25 09:27N 38°03' W 122°08'0 0.0
2018-Apr-25 09:00N 38°03' W 122°08'0 0.0
2018-Apr-25 08:23N 38°03' W 122°08'0 0.0
2018-Apr-25 07:59N 38°03' W 122°08'0 0.0
2018-Apr-25 05:32N 38°03' W 122°08'0 0.0
2018-Apr-25 05:17N 38°03' W 122°08'0 0.0
2018-Apr-25 04:57N 38°03' W 122°08'0 0.0
2018-Apr-25 04:22N 38°03' W 122°08'0 0.0
2018-Apr-25 03:21N 38°03' W 122°08'0 0.0
2018-Apr-25 03:00N 38°03' W 122°08'1 2.5
2018-Apr-25 02:30N 38°03' W 122°06'0 0.6
2018-Apr-25 02:00N 38°03' W 122°06'2 2.4
2018-Apr-25 01:19N 38°02' W 122°08'0 0.0
2018-Apr-24 20:38N 38°02' W 122°08'0 1.6
2018-Apr-24 20:30N 38°02' W 122°08'0 0.1
2018-Apr-24 19:55N 38°02' W 122°08'0 0.3
2018-Apr-24 19:30N 38°02' W 122°08'1 0.2
2018-Apr-24 16:18N 38°03' W 122°08'0 0.0
2018-Apr-24 15:21N 38°03' W 122°08'0 0.0
2018-Apr-24 14:50N 38°03' W 122°08'1 0.1
2018-Apr-24 06:49N 38°02' W 122°08'0 0.1
2018-Apr-24 05:36N 38°02' W 122°07'0 0.6
2018-Apr-24 05:22N 38°02' W 122°08'1 1.8
2018-Apr-24 05:00N 38°02' W 122°08'3 6.0
2018-Apr-24 04:30N 38°03' W 122°12'4 8.2
2018-Apr-24 04:00N 38°04' W 122°17'0 0.6
2018-Apr-24 03:30N 38°03' W 122°17'4 7.4
2018-Apr-24 03:00N 38°03' W 122°12'4 0.3
2018-Apr-23 15:27N 38°03' W 122°08'0 0.0
2018-Apr-23 14:28N 38°03' W 122°08'0 0.7
2018-Apr-23 14:00N 38°02' W 122°08'3 5.7
2018-Apr-23 13:30N 38°03' W 122°12'4 8.8
2018-Apr-23 13:00N 38°04' W 122°17'2 3.7
2018-Apr-23 12:30N 38°03' W 122°15'0 0.0
2018-Apr-23 11:42N 38°03' W 122°15'0 0.0
2018-Apr-23 11:30N 38°03' W 122°15'0 0.0
2018-Apr-23 07:18N 38°03' W 122°15'0 0.0
2018-Apr-23 07:00N 38°03' W 122°15'5 8.7
2018-Apr-23 06:24N 38°02' W 122°08'0 1.0
2018-Apr-23 06:00N 38°02' W 122°08'0 0.0
2018-Apr-23 05:30N 38°02' W 122°08'1 0.1
2018-Apr-22 17:39N 38°03' W 122°08'0 0.0
2018-Apr-22 17:30N 38°03' W 122°08'0 0.0
2018-Apr-22 16:56N 38°03' W 122°08'0 0.0
2018-Apr-22 16:29N 38°03' W 122°08'0 0.0
2018-Apr-22 15:36N 38°03' W 122°08'0 0.0
2018-Apr-22 13:57N 38°03' W 122°08'0 0.0
2018-Apr-22 13:16N 38°03' W 122°08'0 0.0
2018-Apr-22 12:56N 38°03' W 122°08'0 0.1
2018-Apr-22 10:54N 38°02' W 122°08'1 3.5
2018-Apr-22 10:29N 38°02' W 122°10'1 0.6
2018-Apr-22 09:34N 38°02' W 122°10'0 0.0
2018-Apr-22 08:52N 38°02' W 122°10'2 4.6
2018-Apr-22 08:30N 38°02' W 122°08'1 1.6
2018-Apr-22 08:00N 38°02' W 122°07'0 0.1
2018-Apr-22 07:26N 38°02' W 122°07'0 0.1
2018-Apr-22 07:00N 38°02' W 122°07'2 0.9
2018-Apr-22 05:02N 38°02' W 122°10'0 1.4
2018-Apr-22 04:53N 38°02' W 122°10'0 0.0
2018-Apr-22 04:30N 38°02' W 122°10'1 3.0
2018-Apr-22 04:00N 38°03' W 122°11'5 8.4
2018-Apr-22 03:28N 38°03' W 122°17'610.9
2018-Apr-22 02:57N 38°01' W 122°23'510.3
2018-Apr-22 02:30N 37°57' W 122°26'2 3.5
2018-Apr-22 02:00N 37°56' W 122°25'3 5.5
2018-Apr-22 01:30N 37°53' W 122°25'5 9.6
2018-Apr-22 01:01N 37°48' W 122°24'0 0.0
2018-Apr-22 00:30N 37°48' W 122°24'0 0.0
2018-Apr-22 00:00N 37°48' W 122°24'0 0.0
2018-Apr-21 23:30N 37°48' W 122°24'0 0.0
2018-Apr-21 23:00N 37°48' W 122°24'0 0.0
2018-Apr-21 22:30N 37°48' W 122°24'0 0.0
2018-Apr-21 22:00N 37°48' W 122°24'0 0.0
2018-Apr-21 21:30N 37°48' W 122°24'0 0.0
2018-Apr-21 21:00N 37°48' W 122°24'0 0.0
2018-Apr-21 20:30N 37°48' W 122°24'0 0.0
2018-Apr-21 20:00N 37°48' W 122°24'0 0.0
2018-Apr-21 19:30N 37°48' W 122°24'1 2.5
2018-Apr-21 19:00N 37°47' W 122°23'2 4.5
2018-Apr-21 18:30N 37°46' W 122°21'5 9.2
2018-Apr-21 18:00N 37°50' W 122°24'611.7
2018-Apr-21 17:30N 37°55' W 122°27'612.4
2018-Apr-21 17:00N 38°01' W 122°24'611.0
2018-Apr-21 16:28N 38°03' W 122°17'510.4
2018-Apr-21 16:00N 38°03' W 122°11'2 0.2
2018-Apr-21 03:23N 38°03' W 122°08'0 0.0
2018-Apr-21 02:23N 38°03' W 122°08'0 0.0
2018-Apr-21 01:57N 38°03' W 122°08'1 1.3
2018-Apr-21 01:30N 38°02' W 122°07'0 0.0
2018-Apr-21 00:58N 38°02' W 122°07'0 0.9
2018-Apr-21 00:30N 38°02' W 122°08'1 1.3
2018-Apr-20 23:54N 38°02' W 122°09'1 0.2
2018-Apr-20 20:16N 38°02' W 122°08'0 1.0
2018-Apr-20 19:58N 38°02' W 122°08'0 0.0
2018-Apr-20 19:30N 38°02' W 122°08'3 4.6
2018-Apr-20 18:58N 38°03' W 122°11'4 8.5
2018-Apr-20 18:28N 38°04' W 122°16'5 8.7
2018-Apr-20 17:55N 38°02' W 122°22'4 9.1
2018-Apr-20 17:30N 37°59' W 122°25'4 8.2
2018-Apr-20 17:00N 37°56' W 122°27'4 8.6
2018-Apr-20 16:30N 37°52' W 122°25'4 7.9
2018-Apr-20 16:00N 37°49' W 122°29'1 2.7
2018-Apr-20 15:30N 37°48' W 122°30'0 0.3
2018-Apr-20 15:00N 37°48' W 122°29'1 1.8
2018-Apr-20 14:30N 37°49' W 122°29'4 8.7
2018-Apr-20 14:00N 37°48' W 122°24'0 0.0
2018-Apr-20 13:30N 37°48' W 122°24'0 0.0
2018-Apr-20 13:00N 37°48' W 122°24'0 0.0
2018-Apr-20 12:30N 37°48' W 122°24'0 0.0
2018-Apr-20 12:00N 37°48' W 122°24'0 0.0
2018-Apr-20 11:30N 37°48' W 122°24'0 0.0
2018-Apr-20 11:00N 37°48' W 122°24'0 0.0
2018-Apr-20 10:30N 37°48' W 122°24'0 0.0
2018-Apr-20 10:00N 37°48' W 122°24'0 0.0
2018-Apr-20 09:30N 37°48' W 122°24'0 0.0
2018-Apr-20 09:00N 37°48' W 122°24'0 0.0
2018-Apr-20 08:30N 37°48' W 122°24'0 0.0
2018-Apr-20 08:00N 37°48' W 122°24'0 0.0
2018-Apr-20 07:30N 37°48' W 122°24'0 0.0
2018-Apr-20 07:00N 37°48' W 122°24'0 0.0
2018-Apr-20 06:30N 37°48' W 122°24'0 0.0
2018-Apr-20 06:00N 37°48' W 122°24'0 0.0
2018-Apr-20 05:30N 37°48' W 122°24'0 0.0
2018-Apr-20 05:00N 37°48' W 122°24'0 0.0
2018-Apr-20 04:30N 37°48' W 122°24'0 0.0
2018-Apr-20 04:00N 37°48' W 122°24'0 0.0
2018-Apr-20 03:30N 37°48' W 122°24'0 0.0
2018-Apr-20 03:00N 37°48' W 122°24'0 0.0
2018-Apr-20 02:30N 37°48' W 122°24'0 0.0
2018-Apr-20 02:00N 37°48' W 122°24'0 0.0
2018-Apr-20 01:30N 37°48' W 122°24'0 0.0
2018-Apr-20 01:00N 37°48' W 122°24'0 0.0
2018-Apr-20 00:30N 37°48' W 122°24'2 4.6
2018-Apr-20 00:00N 37°48' W 122°21'1 1.3
2018-Apr-19 23:30N 37°49' W 122°20'1 1.6
2018-Apr-19 23:00N 37°49' W 122°21'5 9.6
2018-Apr-19 22:30N 37°53' W 122°25'4 8.3
2018-Apr-19 22:00N 37°57' W 122°26'4 7.9
2018-Apr-19 21:30N 38°01' W 122°24'4 8.7
2018-Apr-19 21:00N 38°03' W 122°19'5 9.6
2018-Apr-19 20:28N 38°04' W 122°13'5 0.5
2018-Apr-19 11:12N 38°02' W 122°07'0 0.1
2018-Apr-19 10:59N 38°02' W 122°07'3 0.3
2018-Apr-18 23:41N 38°03' W 122°11'310.1
2018-Apr-18 23:26N 38°04' W 122°14'510.8
2018-Apr-18 23:00N 38°03' W 122°20'611.5
2018-Apr-18 22:30N 37°60' W 122°25'511.1
2018-Apr-18 22:00N 37°54' W 122°26'4 7.8
2018-Apr-18 21:30N 37°50' W 122°27'3 7.0
2018-Apr-18 21:00N 37°48' W 122°30'0 0.9
2018-Apr-18 20:30N 37°48' W 122°30'3 5.3
2018-Apr-18 20:00N 37°49' W 122°27'2 4.8
2018-Apr-18 19:30N 37°48' W 122°24'0 0.0
2018-Apr-18 19:00N 37°48' W 122°24'0 0.0
2018-Apr-18 18:30N 37°48' W 122°24'0 0.0
2018-Apr-18 18:00N 37°48' W 122°24'0 0.0
2018-Apr-18 17:30N 37°48' W 122°24'0 0.0
2018-Apr-18 17:00N 37°48' W 122°24'1 1.3
2018-Apr-18 16:30N 37°48' W 122°23'3 6.9
2018-Apr-18 16:00N 37°48' W 122°19'1 1.8
2018-Apr-18 15:30N 37°48' W 122°18'0 0.4
2018-Apr-18 15:00N 37°48' W 122°18'2 3.2
2018-Apr-18 14:31N 37°48' W 122°20'3 6.9
2018-Apr-18 14:00N 37°49' W 122°24'0 1.0
2018-Apr-18 13:30N 37°48' W 122°24'0 0.0
2018-Apr-18 13:00N 37°48' W 122°24'0 0.0
2018-Apr-18 12:30N 37°48' W 122°24'0 0.0
2018-Apr-18 12:00N 37°48' W 122°24'0 0.0
2018-Apr-18 11:30N 37°48' W 122°24'0 0.0
2018-Apr-18 11:00N 37°48' W 122°24'0 0.0
2018-Apr-18 10:30N 37°48' W 122°24'0 0.0
2018-Apr-18 10:00N 37°48' W 122°24'0 0.0
2018-Apr-18 09:30N 37°48' W 122°24'0 0.8
2018-Apr-18 09:00N 37°49' W 122°24'5 9.3
2018-Apr-18 08:30N 37°53' W 122°25'2 4.1
2018-Apr-18 08:00N 37°55' W 122°26'1 1.1
2018-Apr-18 07:31N 37°54' W 122°26'2 3.3
2018-Apr-18 07:00N 37°53' W 122°25'1 3.0
2018-Apr-18 06:30N 37°52' W 122°24'3 6.8
2018-Apr-18 06:00N 37°48' W 122°24'0 0.0
2018-Apr-18 05:30N 37°48' W 122°24'0 0.0
2018-Apr-18 05:00N 37°48' W 122°24'0 0.0
2018-Apr-18 04:30N 37°48' W 122°24'0 0.0
2018-Apr-18 04:00N 37°48' W 122°24'0 0.0
2018-Apr-18 03:30N 37°48' W 122°24'0 0.0
2018-Apr-18 03:00N 37°48' W 122°24'0 0.0
2018-Apr-18 02:30N 37°48' W 122°24'0 0.0
2018-Apr-18 02:00N 37°48' W 122°24'0 0.0
2018-Apr-18 01:30N 37°48' W 122°24'0 0.0
2018-Apr-18 01:00N 37°48' W 122°24'0 0.0
2018-Apr-18 00:30N 37°48' W 122°24'0 0.0
2018-Apr-18 00:00N 37°48' W 122°24'0 0.0
2018-Apr-17 23:30N 37°48' W 122°24'1 2.6
2018-Apr-17 23:00N 37°49' W 122°24'510.2
2018-Apr-17 22:30N 37°54' W 122°25'1 2.2
2018-Apr-17 22:00N 37°55' W 122°25'2 3.0
2018-Apr-17 21:30N 37°54' W 122°25'5 9.6
2018-Apr-17 21:00N 37°49' W 122°25'5 9.4
2018-Apr-17 20:30N 37°48' W 122°31'1 1.3
2018-Apr-17 20:00N 37°49' W 122°31'4 7.3
2018-Apr-17 19:30N 37°49' W 122°26'2 3.6
2018-Apr-17 19:00N 37°48' W 122°24'0 0.0
2018-Apr-17 18:30N 37°48' W 122°24'0 0.0
2018-Apr-17 18:00N 37°48' W 122°24'0 0.0
2018-Apr-17 17:30N 37°48' W 122°24'0 0.0
2018-Apr-17 17:00N 37°48' W 122°24'0 0.0
2018-Apr-17 16:30N 37°48' W 122°24'0 0.0
2018-Apr-17 16:00N 37°48' W 122°24'0 0.0
2018-Apr-17 15:30N 37°48' W 122°24'0 0.0
2018-Apr-17 15:00N 37°48' W 122°24'2 4.3
2018-Apr-17 14:30N 37°49' W 122°26'3 6.2
2018-Apr-17 14:00N 37°49' W 122°30'1 1.0
2018-Apr-17 13:30N 37°49' W 122°30'510.0
2018-Apr-17 13:00N 37°52' W 122°25'510.6
2018-Apr-17 12:30N 37°57' W 122°27'510.7
2018-Apr-17 12:00N 38°01' W 122°23'4 8.6
2018-Apr-17 11:30N 38°03' W 122°18'5 8.2
2018-Apr-17 10:55N 38°04' W 122°12'3 5.9
2018-Apr-17 10:26N 38°02' W 122°09'0 0.4
2018-Apr-17 09:59N 38°02' W 122°09'0 0.3
2018-Apr-17 09:28N 38°02' W 122°09'0 0.1
2018-Apr-17 07:37N 38°02' W 122°09'0 0.0
2018-Apr-17 07:14N 38°02' W 122°09'0 0.8
2018-Apr-17 06:59N 38°02' W 122°09'0 0.0
2018-Apr-17 06:27N 38°02' W 122°09'  
Track history (hours):
 
Tides and Currents Weather Stations Pressure Air Temp Water Temp Dewpoint Dewpoint Depression Visibility Wind Speed Wind Dir Waves Ship Positions

Delta Cathryn

Owner: BAYDELTA MARITIME, SAN FRANCISCO, CA. More information available from US FCC via Universal Licensing System and Coast Guard Vessel Documentation Center.

Last reported at 2018-Apr-27 02:30 UTC. Time now 2018-Apr-27 02:42 UTC.
Position N 38°01' W 122°25'.

Length 30 m.

Type: Other ship. MMSI: 367419340.

Date/timePositionNaut miles runAvg speedWind from/ knotsBaromVisibWave heightAir tempDewpointWater temp
2018-Apr-27 02:30N 38°01' W 122°25'511.0
2018-Apr-27 02:00N 37°55' W 122°27'510.1
2018-Apr-27 01:30N 37°51' W 122°24'4 8.1
2018-Apr-27 01:00N 37°49' W 122°29'2 3.8
2018-Apr-27 00:30N 37°49' W 122°31'1 2.0
2018-Apr-27 00:00N 37°49' W 122°30'4 7.2
2018-Apr-26 23:30N 37°49' W 122°26'2 3.1
2018-Apr-26 23:00N 37°48' W 122°24'0 0.0
2018-Apr-26 22:30N 37°48' W 122°24'0 0.0
2018-Apr-26 22:00N 37°48' W 122°24'0 0.0
2018-Apr-26 21:30N 37°48' W 122°24'0 0.9
2018-Apr-26 21:00N 37°48' W 122°23'3 7.0
2018-Apr-26 20:30N 37°48' W 122°19'0 0.0
2018-Apr-26 20:00N 37°48' W 122°19'1 1.5
2018-Apr-26 19:30N 37°48' W 122°18'1 1.4
2018-Apr-26 19:00N 37°48' W 122°17'1 2.9
2018-Apr-26 18:30N 37°48' W 122°19'2 4.9
2018-Apr-26 18:00N 37°48' W 122°22'0 0.9
2018-Apr-26 17:30N 37°48' W 122°22'3 6.5
2018-Apr-26 17:00N 37°51' W 122°24'5 8.8
2018-Apr-26 16:29N 37°55' W 122°25'5 8.9
2018-Apr-26 15:59N 37°60' W 122°25'4 8.1
2018-Apr-26 15:29N 38°02' W 122°21'4 8.5
2018-Apr-26 14:59N 38°04' W 122°16'1 2.0
2018-Apr-26 14:30N 38°03' W 122°15'0 0.0
2018-Apr-26 13:53N 38°03' W 122°15'0 0.0
2018-Apr-26 13:27N 38°03' W 122°15'0 0.0
2018-Apr-26 12:59N 38°03' W 122°15'0 0.0
2018-Apr-26 12:30N 38°03' W 122°15'0 0.0
2018-Apr-26 11:56N 38°03' W 122°15'0 0.0
2018-Apr-26 11:30N 38°03' W 122°15'0 0.0
2018-Apr-26 10:56N 38°03' W 122°15'0 0.0
2018-Apr-26 10:30N 38°03' W 122°15'0 0.0
2018-Apr-26 09:46N 38°03' W 122°15'0 0.0
2018-Apr-26 09:30N 38°03' W 122°15'0 0.0
2018-Apr-26 07:08N 38°03' W 122°15'0 0.0
2018-Apr-26 07:00N 38°03' W 122°15'1 1.4
2018-Apr-26 06:30N 38°03' W 122°16'0 0.6
2018-Apr-26 05:59N 38°04' W 122°16'4 7.3
2018-Apr-26 05:30N 38°03' W 122°20'4 7.9
2018-Apr-26 04:59N 38°01' W 122°24'511.2
2018-Apr-26 04:30N 37°56' W 122°27'611.3
2018-Apr-26 04:00N 37°50' W 122°24'4 8.2
2018-Apr-26 03:30N 37°49' W 122°29'1 2.8
2018-Apr-26 03:00N 37°49' W 122°31'3 5.4
2018-Apr-26 02:30N 37°49' W 122°27'3 5.9
2018-Apr-26 02:00N 37°48' W 122°24'0 0.0
2018-Apr-26 01:30N 37°48' W 122°24'0 0.0
2018-Apr-26 01:00N 37°48' W 122°24'3 6.4
2018-Apr-26 00:30N 37°48' W 122°20'2 3.9
2018-Apr-26 00:00N 37°48' W 122°17'0 0.3
2018-Apr-25 23:30N 37°48' W 122°18'5 9.2
2018-Apr-25 23:00N 37°50' W 122°22'510.5
2018-Apr-25 22:30N 37°55' W 122°25'611.4
2018-Apr-25 22:00N 38°01' W 122°24'611.9
2018-Apr-25 21:30N 38°03' W 122°17'711.4
2018-Apr-25 20:56N 38°02' W 122°09'1 0.3
2018-Apr-25 17:05N 38°02' W 122°08'0 1.9
2018-Apr-25 16:59N 38°02' W 122°08'3 5.4
2018-Apr-25 16:30N 38°03' W 122°11'5 9.4
2018-Apr-25 16:00N 38°04' W 122°17'5 9.1
2018-Apr-25 15:30N 38°03' W 122°11'3 0.5
2018-Apr-25 09:27N 38°03' W 122°08'0 0.0
2018-Apr-25 09:00N 38°03' W 122°08'0 0.0
2018-Apr-25 08:23N 38°03' W 122°08'0 0.0
2018-Apr-25 07:59N 38°03' W 122°08'0 0.0
2018-Apr-25 05:32N 38°03' W 122°08'0 0.0
2018-Apr-25 05:17N 38°03' W 122°08'0 0.0
2018-Apr-25 04:57N 38°03' W 122°08'0 0.0
2018-Apr-25 04:22N 38°03' W 122°08'0 0.0
2018-Apr-25 03:21N 38°03' W 122°08'0 0.0
2018-Apr-25 03:00N 38°03' W 122°08'1 2.5
2018-Apr-25 02:30N 38°03' W 122°06'0 0.6
2018-Apr-25 02:00N 38°03' W 122°06'2 2.4
2018-Apr-25 01:19N 38°02' W 122°08'0 0.0
2018-Apr-24 20:38N 38°02' W 122°08'0 1.6
2018-Apr-24 20:30N 38°02' W 122°08'0 0.1
2018-Apr-24 19:55N 38°02' W 122°08'0 0.3
2018-Apr-24 19:30N 38°02' W 122°08'1 0.2
2018-Apr-24 16:18N 38°03' W 122°08'0 0.0
2018-Apr-24 15:21N 38°03' W 122°08'0 0.0
2018-Apr-24 14:50N 38°03' W 122°08'1 0.1
2018-Apr-24 06:49N 38°02' W 122°08'0 0.1
2018-Apr-24 05:36N 38°02' W 122°07'0 0.6
2018-Apr-24 05:22N 38°02' W 122°08'1 1.8
2018-Apr-24 05:00N 38°02' W 122°08'3 6.0
2018-Apr-24 04:30N 38°03' W 122°12'4 8.2
2018-Apr-24 04:00N 38°04' W 122°17'0 0.6
2018-Apr-24 03:30N 38°03' W 122°17'4 7.4
2018-Apr-24 03:00N 38°03' W 122°12'4 0.3
2018-Apr-23 15:27N 38°03' W 122°08'0 0.0
2018-Apr-23 14:28N 38°03' W 122°08'0 0.7
2018-Apr-23 14:00N 38°02' W 122°08'3 5.7
2018-Apr-23 13:30N 38°03' W 122°12'4 8.8
2018-Apr-23 13:00N 38°04' W 122°17'2 3.7
2018-Apr-23 12:30N 38°03' W 122°15'0 0.0
2018-Apr-23 11:42N 38°03' W 122°15'0 0.0
2018-Apr-23 11:30N 38°03' W 122°15'0 0.0
2018-Apr-23 07:18N 38°03' W 122°15'0 0.0
2018-Apr-23 07:00N 38°03' W 122°15'5 8.7
2018-Apr-23 06:24N 38°02' W 122°08'0 1.0
2018-Apr-23 06:00N 38°02' W 122°08'0 0.0
2018-Apr-23 05:30N 38°02' W 122°08'1 0.1
2018-Apr-22 17:39N 38°03' W 122°08'0 0.0
2018-Apr-22 17:30N 38°03' W 122°08'0 0.0
2018-Apr-22 16:56N 38°03' W 122°08'0 0.0
2018-Apr-22 16:29N 38°03' W 122°08'0 0.0
2018-Apr-22 15:36N 38°03' W 122°08'0 0.0
2018-Apr-22 13:57N 38°03' W 122°08'0 0.0
2018-Apr-22 13:16N 38°03' W 122°08'0 0.0
2018-Apr-22 12:56N 38°03' W 122°08'0 0.1
2018-Apr-22 10:54N 38°02' W 122°08'1 3.5
2018-Apr-22 10:29N 38°02' W 122°10'1 0.6
2018-Apr-22 09:34N 38°02' W 122°10'0 0.0
2018-Apr-22 08:52N 38°02' W 122°10'2 4.6
2018-Apr-22 08:30N 38°02' W 122°08'1 1.6
2018-Apr-22 08:00N 38°02' W 122°07'0 0.1
2018-Apr-22 07:26N 38°02' W 122°07'0 0.1
2018-Apr-22 07:00N 38°02' W 122°07'2 0.9
2018-Apr-22 05:02N 38°02' W 122°10'0 1.4
2018-Apr-22 04:53N 38°02' W 122°10'0 0.0
2018-Apr-22 04:30N 38°02' W 122°10'1 3.0
2018-Apr-22 04:00N 38°03' W 122°11'5 8.4
2018-Apr-22 03:28N 38°03' W 122°17'610.9
2018-Apr-22 02:57N 38°01' W 122°23'510.3
2018-Apr-22 02:30N 37°57' W 122°26'2 3.5
2018-Apr-22 02:00N 37°56' W 122°25'3 5.5
2018-Apr-22 01:30N 37°53' W 122°25'5 9.6
2018-Apr-22 01:01N 37°48' W 122°24'0 0.0
2018-Apr-22 00:30N 37°48' W 122°24'0 0.0
2018-Apr-22 00:00N 37°48' W 122°24'0 0.0
2018-Apr-21 23:30N 37°48' W 122°24'0 0.0
2018-Apr-21 23:00N 37°48' W 122°24'0 0.0
2018-Apr-21 22:30N 37°48' W 122°24'0 0.0
2018-Apr-21 22:00N 37°48' W 122°24'0 0.0
2018-Apr-21 21:30N 37°48' W 122°24'0 0.0
2018-Apr-21 21:00N 37°48' W 122°24'0 0.0
2018-Apr-21 20:30N 37°48' W 122°24'0 0.0
2018-Apr-21 20:00N 37°48' W 122°24'0 0.0
2018-Apr-21 19:30N 37°48' W 122°24'1 2.5
2018-Apr-21 19:00N 37°47' W 122°23'2 4.5
2018-Apr-21 18:30N 37°46' W 122°21'5 9.2
2018-Apr-21 18:00N 37°50' W 122°24'611.7
2018-Apr-21 17:30N 37°55' W 122°27'612.4
2018-Apr-21 17:00N 38°01' W 122°24'611.0
2018-Apr-21 16:28N 38°03' W 122°17'510.4
2018-Apr-21 16:00N 38°03' W 122°11'2 0.2
2018-Apr-21 03:23N 38°03' W 122°08'0 0.0
2018-Apr-21 02:23N 38°03' W 122°08'0 0.0
2018-Apr-21 01:57N 38°03' W 122°08'1 1.3
2018-Apr-21 01:30N 38°02' W 122°07'0 0.0
2018-Apr-21 00:58N 38°02' W 122°07'0 0.9
2018-Apr-21 00:30N 38°02' W 122°08'1 1.3
2018-Apr-20 23:54N 38°02' W 122°09'1 0.2
2018-Apr-20 20:16N 38°02' W 122°08'0 1.0
2018-Apr-20 19:58N 38°02' W 122°08'0 0.0
2018-Apr-20 19:30N 38°02' W 122°08'3 4.6
2018-Apr-20 18:58N 38°03' W 122°11'4 8.5
2018-Apr-20 18:28N 38°04' W 122°16'5 8.7
2018-Apr-20 17:55N 38°02' W 122°22'4 9.1
2018-Apr-20 17:30N 37°59' W 122°25'4 8.2
2018-Apr-20 17:00N 37°56' W 122°27'4 8.6
2018-Apr-20 16:30N 37°52' W 122°25'4 7.9
2018-Apr-20 16:00N 37°49' W 122°29'1 2.7
2018-Apr-20 15:30N 37°48' W 122°30'0 0.3
2018-Apr-20 15:00N 37°48' W 122°29'1 1.8
2018-Apr-20 14:30N 37°49' W 122°29'4 8.7
2018-Apr-20 14:00N 37°48' W 122°24'0 0.0
2018-Apr-20 13:30N 37°48' W 122°24'0 0.0
2018-Apr-20 13:00N 37°48' W 122°24'0 0.0
2018-Apr-20 12:30N 37°48' W 122°24'0 0.0
2018-Apr-20 12:00N 37°48' W 122°24'0 0.0
2018-Apr-20 11:30N 37°48' W 122°24'0 0.0
2018-Apr-20 11:00N 37°48' W 122°24'0 0.0
2018-Apr-20 10:30N 37°48' W 122°24'0 0.0
2018-Apr-20 10:00N 37°48' W 122°24'0 0.0
2018-Apr-20 09:30N 37°48' W 122°24'0 0.0
2018-Apr-20 09:00N 37°48' W 122°24'0 0.0
2018-Apr-20 08:30N 37°48' W 122°24'0 0.0
2018-Apr-20 08:00N 37°48' W 122°24'0 0.0
2018-Apr-20 07:30N 37°48' W 122°24'0 0.0
2018-Apr-20 07:00N 37°48' W 122°24'0 0.0
2018-Apr-20 06:30N 37°48' W 122°24'0 0.0
2018-Apr-20 06:00N 37°48' W 122°24'0 0.0
2018-Apr-20 05:30N 37°48' W 122°24'0 0.0
2018-Apr-20 05:00N 37°48' W 122°24'0 0.0
2018-Apr-20 04:30N 37°48' W 122°24'0 0.0
2018-Apr-20 04:00N 37°48' W 122°24'0 0.0
2018-Apr-20 03:30N 37°48' W 122°24'0 0.0
2018-Apr-20 03:00N 37°48' W 122°24'0 0.0
2018-Apr-20 02:30N 37°48' W 122°24'0 0.0
2018-Apr-20 02:00N 37°48' W 122°24'0 0.0
2018-Apr-20 01:30N 37°48' W 122°24'0 0.0
2018-Apr-20 01:00N 37°48' W 122°24'0 0.0
2018-Apr-20 00:30N 37°48' W 122°24'2 4.6
2018-Apr-20 00:00N 37°48' W 122°21'1 1.3
2018-Apr-19 23:30N 37°49' W 122°20'1 1.6
2018-Apr-19 23:00N 37°49' W 122°21'5 9.6
2018-Apr-19 22:30N 37°53' W 122°25'4 8.3
2018-Apr-19 22:00N 37°57' W 122°26'4 7.9
2018-Apr-19 21:30N 38°01' W 122°24'4 8.7
2018-Apr-19 21:00N 38°03' W 122°19'5 9.6
2018-Apr-19 20:28N 38°04' W 122°13'5 0.5
2018-Apr-19 11:12N 38°02' W 122°07'0 0.1
2018-Apr-19 10:59N 38°02' W 122°07'3 0.3
2018-Apr-18 23:41N 38°03' W 122°11'310.1
2018-Apr-18 23:26N 38°04' W 122°14'510.8
2018-Apr-18 23:00N 38°03' W 122°20'611.5
2018-Apr-18 22:30N 37°60' W 122°25'511.1
2018-Apr-18 22:00N 37°54' W 122°26'4 7.8
2018-Apr-18 21:30N 37°50' W 122°27'3 7.0
2018-Apr-18 21:00N 37°48' W 122°30'0 0.9
2018-Apr-18 20:30N 37°48' W 122°30'3 5.3
2018-Apr-18 20:00N 37°49' W 122°27'2 4.8
2018-Apr-18 19:30N 37°48' W 122°24'0 0.0
2018-Apr-18 19:00N 37°48' W 122°24'0 0.0
2018-Apr-18 18:30N 37°48' W 122°24'0 0.0
2018-Apr-18 18:00N 37°48' W 122°24'0 0.0
2018-Apr-18 17:30N 37°48' W 122°24'0 0.0
2018-Apr-18 17:00N 37°48' W 122°24'1 1.3
2018-Apr-18 16:30N 37°48' W 122°23'3 6.9
2018-Apr-18 16:00N 37°48' W 122°19'1 1.8
2018-Apr-18 15:30N 37°48' W 122°18'0 0.4
2018-Apr-18 15:00N 37°48' W 122°18'2 3.2
2018-Apr-18 14:31N 37°48' W 122°20'3 6.9
2018-Apr-18 14:00N 37°49' W 122°24'0 1.0
2018-Apr-18 13:30N 37°48' W 122°24'0 0.0
2018-Apr-18 13:00N 37°48' W 122°24'0 0.0
2018-Apr-18 12:30N 37°48' W 122°24'0 0.0
2018-Apr-18 12:00N 37°48' W 122°24'0 0.0
2018-Apr-18 11:30N 37°48' W 122°24'0 0.0
2018-Apr-18 11:00N 37°48' W 122°24'0 0.0
2018-Apr-18 10:30N 37°48' W 122°24'0 0.0
2018-Apr-18 10:00N 37°48' W 122°24'0 0.0
2018-Apr-18 09:30N 37°48' W 122°24'0 0.8
2018-Apr-18 09:00N 37°49' W 122°24'5 9.3
2018-Apr-18 08:30N 37°53' W 122°25'2 4.1
2018-Apr-18 08:00N 37°55' W 122°26'1 1.1
2018-Apr-18 07:31N 37°54' W 122°26'2 3.3
2018-Apr-18 07:00N 37°53' W 122°25'1 3.0
2018-Apr-18 06:30N 37°52' W 122°24'3 6.8
2018-Apr-18 06:00N 37°48' W 122°24'0 0.0
2018-Apr-18 05:30N 37°48' W 122°24'0 0.0
2018-Apr-18 05:00N 37°48' W 122°24'0 0.0
2018-Apr-18 04:30N 37°48' W 122°24'0 0.0
2018-Apr-18 04:00N 37°48' W 122°24'0 0.0
2018-Apr-18 03:30N 37°48' W 122°24'0 0.0
2018-Apr-18 03:00N 37°48' W 122°24'0 0.0
2018-Apr-18 02:30N 37°48' W 122°24'0 0.0
2018-Apr-18 02:00N 37°48' W 122°24'0 0.0
2018-Apr-18 01:30N 37°48' W 122°24'0 0.0
2018-Apr-18 01:00N 37°48' W 122°24'0 0.0
2018-Apr-18 00:30N 37°48' W 122°24'0 0.0
2018-Apr-18 00:00N 37°48' W 122°24'0 0.0
2018-Apr-17 23:30N 37°48' W 122°24'1 2.6
2018-Apr-17 23:00N 37°49' W 122°24'510.2
2018-Apr-17 22:30N 37°54' W 122°25'1 2.2
2018-Apr-17 22:00N 37°55' W 122°25'2 3.0
2018-Apr-17 21:30N 37°54' W 122°25'5 9.6
2018-Apr-17 21:00N 37°49' W 122°25'5 9.4
2018-Apr-17 20:30N 37°48' W 122°31'1 1.3
2018-Apr-17 20:00N 37°49' W 122°31'4 7.3
2018-Apr-17 19:30N 37°49' W 122°26'2 3.6
2018-Apr-17 19:00N 37°48' W 122°24'0 0.0
2018-Apr-17 18:30N 37°48' W 122°24'0 0.0
2018-Apr-17 18:00N 37°48' W 122°24'0 0.0
2018-Apr-17 17:30N 37°48' W 122°24'0 0.0
2018-Apr-17 17:00N 37°48' W 122°24'0 0.0
2018-Apr-17 16:30N 37°48' W 122°24'0 0.0
2018-Apr-17 16:00N 37°48' W 122°24'0 0.0
2018-Apr-17 15:30N 37°48' W 122°24'0 0.0
2018-Apr-17 15:00N 37°48' W 122°24'2 4.3
2018-Apr-17 14:30N 37°49' W 122°26'3 6.2
2018-Apr-17 14:00N 37°49' W 122°30'1 1.0
2018-Apr-17 13:30N 37°49' W 122°30'510.0
2018-Apr-17 13:00N 37°52' W 122°25'510.6
2018-Apr-17 12:30N 37°57' W 122°27'510.7
2018-Apr-17 12:00N 38°01' W 122°23'4 8.6
2018-Apr-17 11:30N 38°03' W 122°18'5 8.2
2018-Apr-17 10:55N 38°04' W 122°12'3 5.9
2018-Apr-17 10:26N 38°02' W 122°09'0 0.4
2018-Apr-17 09:59N 38°02' W 122°09'0 0.3
2018-Apr-17 09:28N 38°02' W 122°09'0 0.1
2018-Apr-17 07:37N 38°02' W 122°09'0 0.0
2018-Apr-17 07:14N 38°02' W 122°09'0 0.8
2018-Apr-17 06:59N 38°02' W 122°09'0 0.0
2018-Apr-17 06:27N 38°02' W 122°09'  

Dump ship's entire track history